createdAt,value
2023-02-13T00:00:51.923Z,8.60
2023-02-13T00:03:19.028Z,8.05
2023-02-13T00:05:45.935Z,8.63
2023-02-13T00:08:12.799Z,8.98
2023-02-13T00:10:40.380Z,7.50
2023-02-13T00:13:07.161Z,8.43
2023-02-13T00:15:34.371Z,7.28
2023-02-13T00:18:02.945Z,9.88
2023-02-13T00:20:29.776Z,9.88
2023-02-13T00:22:56.586Z,8.45
2023-02-13T00:25:23.352Z,9.05
2023-02-13T00:27:52.412Z,7.20
2023-02-13T00:30:19.309Z,8.38
2023-02-13T00:32:46.574Z,6.45
2023-02-13T00:35:13.417Z,7.05
2023-02-13T00:37:40.190Z,6.50
2023-02-13T00:40:08.076Z,7.03
2023-02-13T00:42:34.880Z,6.85
2023-02-13T00:45:01.640Z,7.28
2023-02-13T00:47:28.464Z,7.03
2023-02-13T00:49:55.270Z,7.30
2023-02-13T00:52:22.066Z,8.77
2023-02-13T00:54:48.913Z,6.22
2023-02-13T00:57:15.708Z,7.38
2023-02-13T00:59:42.523Z,6.60
2023-02-13T01:02:09.330Z,7.20
2023-02-13T01:04:36.164Z,7.45
2023-02-13T01:07:02.949Z,7.07
2023-02-13T01:09:29.763Z,8.30
2023-02-13T01:11:56.569Z,6.57
2023-02-13T01:14:23.454Z,8.20
2023-02-13T01:16:50.234Z,7.03
2023-02-13T01:19:17.447Z,6.70
2023-02-13T01:21:44.767Z,9.73
2023-02-13T01:24:11.924Z,7.25
2023-02-13T01:26:39.637Z,7.07
2023-02-13T01:29:06.779Z,7.25
2023-02-13T01:31:34.165Z,8.85
2023-02-13T01:34:01.181Z,6.97
2023-02-13T01:36:28.163Z,8.65
2023-02-13T01:38:58.460Z,8.98
2023-02-13T01:41:27.363Z,8.05
2023-02-13T01:43:58.911Z,8.10
2023-02-13T01:46:37.841Z,8.15
2023-02-13T01:49:33.986Z,8.55
2023-02-13T01:52:00.853Z,8.82
2023-02-13T01:54:31.489Z,7.85
2023-02-13T01:57:22.510Z,7.88
2023-02-13T02:00:08.120Z,8.13
2023-02-13T02:02:40.746Z,9.70
2023-02-13T02:05:09.322Z,10.20
2023-02-13T02:07:38.357Z,10.75
2023-02-13T02:10:10.716Z,11.00
2023-02-13T02:13:07.160Z,11.23
2023-02-13T02:15:34.202Z,10.75
2023-02-13T02:18:01.022Z,12.80
2023-02-13T02:21:09.984Z,12.32
2023-02-13T02:24:27.667Z,14.02
2023-02-13T02:27:25.976Z,14.23
2023-02-13T02:30:17.303Z,15.35
2023-02-13T02:33:26.731Z,13.75
2023-02-13T02:36:12.479Z,14.70
2023-02-13T02:39:04.093Z,16.42
2023-02-13T02:42:23.566Z,16.45
2023-02-13T02:45:39.409Z,14.48
2023-02-13T02:48:36.948Z,17.80
2023-02-13T02:51:29.764Z,14.80
2023-02-13T02:54:41.663Z,16.45
2023-02-13T02:57:16.647Z,18.75
2023-02-13T03:02:51.562Z,19.45
2023-02-13T03:05:50.931Z,19.25
2023-02-13T03:08:41.374Z,16.10
2023-02-13T03:11:28.149Z,16.65
2023-02-13T03:13:56.049Z,18.77
2023-02-13T03:16:44.403Z,20.63
2023-02-13T03:20:05.781Z,17.67
2023-02-13T03:22:57.650Z,20.73
2023-02-13T03:25:41.662Z,19.75
2023-02-13T03:29:26.335Z,21.27
2023-02-13T03:32:16.146Z,23.50
2023-02-13T03:35:18.480Z,20.75
2023-02-13T03:37:56.768Z,20.00
2023-02-13T03:41:05.343Z,20.48
2023-02-13T03:43:59.243Z,20.08
2023-02-13T03:46:31.313Z,23.17
2023-02-13T03:49:18.867Z,22.45
2023-02-13T03:51:51.811Z,23.60
2023-02-13T03:54:44.041Z,23.38
2023-02-13T03:57:37.496Z,25.58
2023-02-13T04:00:11.905Z,23.17
2023-02-13T04:02:50.341Z,23.38
2023-02-13T04:05:24.845Z,24.17
2023-02-13T04:07:51.781Z,24.25
2023-02-13T04:10:20.540Z,25.55
2023-02-13T04:13:15.373Z,24.38
2023-02-13T04:16:06.692Z,28.00
2023-02-13T04:18:34.877Z,23.88
2023-02-13T04:21:05.211Z,25.65
2023-02-13T04:23:32.179Z,25.25
2023-02-13T04:26:03.277Z,25.85
2023-02-13T04:28:30.369Z,29.05
2023-02-13T04:30:58.857Z,27.63
2023-02-13T04:33:26.014Z,24.73
2023-02-13T04:35:53.142Z,26.13
2023-02-13T04:38:19.901Z,27.13
2023-02-13T04:40:46.690Z,26.85
2023-02-13T04:43:13.611Z,25.95
2023-02-13T04:45:40.481Z,28.10
2023-02-13T04:48:07.335Z,31.90
2023-02-13T04:50:34.109Z,32.65
2023-02-13T04:53:00.899Z,25.98
2023-02-13T04:55:28.613Z,29.08
2023-02-13T04:57:56.381Z,29.48
2023-02-13T05:00:25.993Z,29.05
2023-02-13T05:02:54.070Z,29.10
2023-02-13T05:05:21.633Z,28.45
2023-02-13T05:07:48.509Z,30.63
2023-02-13T05:10:15.383Z,32.40
2023-02-13T05:12:42.175Z,25.75
2023-02-13T05:15:09.784Z,28.10
2023-02-13T05:17:36.580Z,32.05
2023-02-13T05:20:03.868Z,31.33
2023-02-13T05:22:49.291Z,31.38
2023-02-13T05:27:43.020Z,31.40
2023-02-13T05:30:10.701Z,34.53
2023-02-13T05:32:37.815Z,33.55
2023-02-13T05:35:06.027Z,34.78
2023-02-13T05:37:32.923Z,30.45
2023-02-13T05:39:59.871Z,33.05
2023-02-13T05:42:26.870Z,32.33
2023-02-13T05:44:53.641Z,38.00
2023-02-13T05:47:20.456Z,33.70
2023-02-13T05:49:47.225Z,33.80
2023-02-13T05:52:13.999Z,34.67
2023-02-13T05:54:41.215Z,33.40
2023-02-13T05:57:08.150Z,34.53
2023-02-13T05:59:34.934Z,33.83
2023-02-13T06:02:01.764Z,32.53
2023-02-13T06:04:30.454Z,31.92
2023-02-13T06:06:57.615Z,37.17
2023-02-13T06:09:24.452Z,34.70
2023-02-13T06:11:51.288Z,33.60
2023-02-13T06:14:18.077Z,36.97
2023-02-13T06:16:44.899Z,36.42
2023-02-13T06:19:11.672Z,38.88
2023-02-13T06:21:39.076Z,38.53
2023-02-13T06:24:09.711Z,37.38
2023-02-13T06:26:36.560Z,37.78
2023-02-13T06:29:05.107Z,37.35
2023-02-13T06:31:32.544Z,40.20
2023-02-13T06:33:59.409Z,38.47
2023-02-13T06:36:26.228Z,37.17
2023-02-13T06:38:53.040Z,39.33
2023-02-13T06:41:20.352Z,38.35
2023-02-13T06:43:47.180Z,37.83
2023-02-13T06:46:13.995Z,40.10
2023-02-13T06:48:40.840Z,40.58
2023-02-13T06:51:07.717Z,39.90
2023-02-13T06:53:34.526Z,37.92
2023-02-13T06:56:06.643Z,39.92
2023-02-13T06:58:34.421Z,42.35
2023-02-13T07:01:01.337Z,41.85
2023-02-13T07:03:28.526Z,41.58
2023-02-13T07:05:55.410Z,40.72
2023-02-13T07:08:22.662Z,44.60
2023-02-13T07:10:49.954Z,38.70
2023-02-13T07:13:16.858Z,39.20
2023-02-13T07:15:43.783Z,41.53
2023-02-13T07:18:10.824Z,40.90
2023-02-13T07:20:37.685Z,42.00
2023-02-13T07:23:07.041Z,36.45
2023-02-13T07:25:34.288Z,38.70
2023-02-13T07:28:03.660Z,41.00
2023-02-13T07:30:32.479Z,38.17
2023-02-13T07:33:01.720Z,40.10
2023-02-13T07:35:28.735Z,40.97
2023-02-13T07:37:56.203Z,40.63
2023-02-13T07:40:23.378Z,40.15
2023-02-13T07:42:50.190Z,45.22
2023-02-13T07:45:17.129Z,38.05
2023-02-13T07:47:44.357Z,43.13
2023-02-13T07:50:12.639Z,41.92
2023-02-13T07:52:39.541Z,36.25
2023-02-13T07:55:06.983Z,43.58
2023-02-13T07:57:34.623Z,39.70
2023-02-13T08:00:01.919Z,40.67
2023-02-13T08:02:28.854Z,41.05
2023-02-13T08:04:56.043Z,43.03
2023-02-13T08:07:22.895Z,43.03
2023-02-13T08:10:08.344Z,41.70
2023-02-13T08:12:36.728Z,42.15
2023-02-13T08:15:04.679Z,40.17
2023-02-13T08:17:31.611Z,40.78
2023-02-13T08:19:58.561Z,40.90
2023-02-13T08:22:25.781Z,41.35
2023-02-13T08:24:52.927Z,40.90
2023-02-13T08:27:20.347Z,39.05
2023-02-13T08:29:49.448Z,43.95
2023-02-13T08:32:16.581Z,39.78
2023-02-13T08:34:43.488Z,40.92
2023-02-13T08:37:10.288Z,40.03
2023-02-13T08:39:37.262Z,40.85
2023-02-13T08:42:04.208Z,50.03
2023-02-13T08:44:31.055Z,42.25
2023-02-13T08:46:58.044Z,44.08
2023-02-13T08:49:25.050Z,46.03
2023-02-13T08:51:51.820Z,44.20
2023-02-13T08:54:18.791Z,41.50
2023-02-13T08:56:45.790Z,47.75
2023-02-13T08:59:12.562Z,43.45
2023-02-13T09:01:39.526Z,41.50
2023-02-13T09:04:06.429Z,41.03
2023-02-13T09:06:33.660Z,42.53
2023-02-13T09:09:00.445Z,42.45
2023-02-13T09:11:27.265Z,39.80
2023-02-13T09:13:54.453Z,41.53
2023-02-13T09:16:21.830Z,42.35
2023-02-13T09:18:50.221Z,42.63
2023-02-13T09:21:18.406Z,43.17
2023-02-13T09:23:46.067Z,42.15
2023-02-13T09:26:16.452Z,42.45
2023-02-13T09:28:43.949Z,40.13
2023-02-13T09:31:17.733Z,40.67
2023-02-13T09:33:46.391Z,40.28
2023-02-13T09:36:16.620Z,44.30
2023-02-13T09:38:44.384Z,39.78
2023-02-13T09:41:21.566Z,40.53
2023-02-13T09:43:52.874Z,36.15
2023-02-13T09:46:40.670Z,41.17
2023-02-13T09:49:17.510Z,36.03
2023-02-13T09:51:47.455Z,41.58
2023-02-13T09:54:19.208Z,41.30
2023-02-13T09:57:00.617Z,41.20
2023-02-13T09:59:41.170Z,42.22
2023-02-13T10:02:38.774Z,37.28
2023-02-13T10:05:26.952Z,35.55
2023-02-13T10:08:08.500Z,37.35
2023-02-13T10:10:50.534Z,39.30
2023-02-13T10:13:48.455Z,39.33
2023-02-13T10:16:29.440Z,37.55
2023-02-13T10:19:06.867Z,39.90
2023-02-13T10:21:42.908Z,40.13
2023-02-13T10:24:40.427Z,40.20
2023-02-13T10:27:34.946Z,44.15
2023-02-13T10:30:26.526Z,37.88
2023-02-13T10:33:20.872Z,41.20
2023-02-13T10:36:03.857Z,37.60
2023-02-13T10:38:36.003Z,41.05
2023-02-13T10:41:36.278Z,38.03
2023-02-13T10:44:42.735Z,40.80
2023-02-13T10:47:24.456Z,36.45
2023-02-13T10:50:40.145Z,38.33
2023-02-13T10:53:24.991Z,40.67
2023-02-13T10:56:03.761Z,42.53
2023-02-13T10:59:15.949Z,39.05
2023-02-13T11:02:02.729Z,37.72
2023-02-13T11:04:30.308Z,41.00
2023-02-13T11:07:04.399Z,39.60
2023-02-13T11:09:39.002Z,31.13
2023-02-13T11:12:31.918Z,37.75
2023-02-13T11:15:08.864Z,36.95
2023-02-13T11:17:40.370Z,37.67
2023-02-13T11:20:27.810Z,38.47
2023-02-13T11:22:56.100Z,43.42
2023-02-13T11:25:32.025Z,41.13
2023-02-13T11:28:17.985Z,44.03
2023-02-13T11:30:44.988Z,40.50
2023-02-13T11:33:17.756Z,39.97
2023-02-13T11:35:46.231Z,35.70
2023-02-13T11:38:15.976Z,35.20
2023-02-13T11:40:47.944Z,44.58
2023-02-13T11:43:29.325Z,42.63
2023-02-13T11:46:22.349Z,36.42
2023-02-13T11:49:07.925Z,44.58
2023-02-13T11:51:47.373Z,44.70
2023-02-13T11:55:00.265Z,39.10
2023-02-13T11:57:34.196Z,49.28
2023-02-13T12:00:28.933Z,44.17
2023-02-13T12:02:55.836Z,45.75
2023-02-13T12:05:28.453Z,45.78
2023-02-13T12:08:02.180Z,44.65
2023-02-13T12:10:33.835Z,44.47
2023-02-13T12:13:13.988Z,45.50
2023-02-13T12:15:41.848Z,43.78
2023-02-13T12:18:40.159Z,44.70
2023-02-13T12:21:56.256Z,41.63
2023-02-13T12:24:44.249Z,43.63
2023-02-13T12:27:26.267Z,42.33
2023-02-13T12:30:14.976Z,43.92
2023-02-13T12:33:16.787Z,47.30
2023-02-13T12:35:55.452Z,44.75
2023-02-13T12:38:51.516Z,47.85
2023-02-13T12:41:44.489Z,45.22
2023-02-13T12:44:52.858Z,41.50
2023-02-13T12:47:31.818Z,48.60
2023-02-13T12:50:39.811Z,43.30
2023-02-13T12:53:24.862Z,45.15
2023-02-13T12:56:09.057Z,43.20
2023-02-13T12:58:51.375Z,42.53
2023-02-13T13:01:46.542Z,44.67
2023-02-13T13:04:50.949Z,32.60
2023-02-13T13:08:04.557Z,45.97
2023-02-13T13:11:11.042Z,43.05
2023-02-13T13:13:54.936Z,39.40
2023-02-13T13:17:29.576Z,42.20
2023-02-13T13:20:14.483Z,41.63
2023-02-13T13:22:53.979Z,33.67
2023-02-13T13:25:30.984Z,42.47
2023-02-13T13:28:27.812Z,38.38
2023-02-13T13:30:55.727Z,40.30
2023-02-13T13:33:26.388Z,44.35
2023-02-13T13:36:18.830Z,39.83
2023-02-13T13:39:22.892Z,42.55
2023-02-13T13:42:11.925Z,41.67
2023-02-13T13:44:50.443Z,47.95
2023-02-13T13:47:35.412Z,42.05
2023-02-13T13:50:06.220Z,37.97
2023-02-13T13:52:40.342Z,45.38
2023-02-13T13:55:48.853Z,37.23
2023-02-13T13:58:44.124Z,45.28
2023-02-13T14:01:31.184Z,40.78
2023-02-13T14:04:32.879Z,38.90
2023-02-13T14:06:59.607Z,45.67
2023-02-13T14:09:43.852Z,45.55
2023-02-13T14:12:50.349Z,41.00
2023-02-13T14:15:39.018Z,40.42
2023-02-13T14:18:08.246Z,42.50
2023-02-13T14:20:43.090Z,38.15
2023-02-13T14:23:53.513Z,41.55
2023-02-13T14:26:32.090Z,43.30
2023-02-13T14:29:16.839Z,46.58
2023-02-13T14:32:01.223Z,44.05
2023-02-13T14:34:38.664Z,45.13
2023-02-13T14:37:13.141Z,46.35
2023-02-13T14:39:42.365Z,39.45
2023-02-13T14:42:30.283Z,45.97
2023-02-13T14:45:00.652Z,46.20
2023-02-13T14:47:32.847Z,47.90
2023-02-13T14:50:03.892Z,44.05
2023-02-13T14:52:40.329Z,43.78
2023-02-13T14:55:45.881Z,45.58
2023-02-13T14:58:28.214Z,41.75
2023-02-13T15:01:06.149Z,40.30
2023-02-13T15:03:38.319Z,40.08
2023-02-13T15:06:14.905Z,46.20
2023-02-13T15:08:49.696Z,46.55
2023-02-13T15:11:43.171Z,50.67
2023-02-13T15:14:35.643Z,49.13
2023-02-13T15:17:24.174Z,48.97
2023-02-13T15:20:05.122Z,47.60
2023-02-13T15:22:36.374Z,42.55
2023-02-13T15:25:04.493Z,40.10
2023-02-13T15:27:39.205Z,45.47
2023-02-13T15:30:22.525Z,43.08
2023-02-13T15:32:59.726Z,44.67
2023-02-13T15:35:38.935Z,54.53
2023-02-13T15:38:39.273Z,48.00
2023-02-13T15:41:24.409Z,49.38
2023-02-13T15:43:56.600Z,46.95
2023-02-13T15:46:33.927Z,48.53
2023-02-13T15:49:07.402Z,46.25
2023-02-13T15:51:35.292Z,43.45
2023-02-13T15:54:07.326Z,46.20
2023-02-13T15:56:35.229Z,44.67
2023-02-13T15:59:03.889Z,43.33
2023-02-13T16:01:32.311Z,51.15
2023-02-13T16:04:06.817Z,52.78
2023-02-13T16:06:35.078Z,45.15
2023-02-13T16:09:04.586Z,48.70
2023-02-13T16:11:44.799Z,44.85
2023-02-13T16:14:21.742Z,53.70
2023-02-13T16:17:18.057Z,47.83
2023-02-13T16:19:50.889Z,45.60
2023-02-13T16:22:38.142Z,49.03
2023-02-13T16:25:16.767Z,49.70
2023-02-13T16:28:18.781Z,46.30
2023-02-13T16:30:51.580Z,44.15
2023-02-13T16:33:36.361Z,43.75
2023-02-13T16:36:09.443Z,48.70
2023-02-13T16:38:46.487Z,57.25
2023-02-13T16:41:19.376Z,44.78
2023-02-13T16:43:53.967Z,45.97
2023-02-13T16:46:26.949Z,49.53
2023-02-13T16:48:56.893Z,49.28
2023-02-13T16:51:42.825Z,52.60
2023-02-13T16:54:12.432Z,49.60
2023-02-13T16:56:49.933Z,50.67
2023-02-13T16:59:42.064Z,52.88
2023-02-13T17:02:12.970Z,50.10
2023-02-13T17:04:39.949Z,55.35
2023-02-13T17:07:14.048Z,55.00
2023-02-13T17:09:40.982Z,55.40
2023-02-13T17:12:18.254Z,54.05
2023-02-13T17:14:45.450Z,54.90
2023-02-13T17:17:15.957Z,49.40
2023-02-13T17:19:43.052Z,52.38
2023-02-13T17:22:40.170Z,56.45
2023-02-13T17:25:17.758Z,53.17
2023-02-13T17:27:45.285Z,54.75
2023-02-13T17:30:24.951Z,49.47
2023-02-13T17:32:59.569Z,53.70
2023-02-13T17:35:26.787Z,52.58
2023-02-13T17:37:54.024Z,50.45
2023-02-13T17:40:29.889Z,53.05
2023-02-13T17:42:58.571Z,51.78
2023-02-13T17:45:29.043Z,51.63
2023-02-13T17:47:57.964Z,49.75
2023-02-13T17:50:27.594Z,51.47
2023-02-13T17:52:55.076Z,54.05
2023-02-13T17:55:29.140Z,53.38
2023-02-13T17:57:57.818Z,48.88
2023-02-13T18:00:29.280Z,55.17
2023-02-13T18:02:59.501Z,55.42
2023-02-13T18:05:28.698Z,60.25
2023-02-13T18:07:56.096Z,49.50
2023-02-13T18:10:29.331Z,50.80
2023-02-13T18:13:04.069Z,55.03
2023-02-13T18:15:40.267Z,55.97
2023-02-13T18:18:07.914Z,55.38
2023-02-13T18:20:35.011Z,58.83
2023-02-13T18:23:02.036Z,56.17
2023-02-13T18:25:29.829Z,57.33
2023-02-13T18:27:56.642Z,55.30
2023-02-13T18:30:23.799Z,57.20
2023-02-13T18:32:56.162Z,58.95
2023-02-13T18:35:23.458Z,52.08
2023-02-13T18:37:51.230Z,53.75
2023-02-13T18:40:18.519Z,56.15
2023-02-13T18:42:45.436Z,59.70
2023-02-13T18:45:12.676Z,56.65
2023-02-13T18:47:39.531Z,57.50
2023-02-13T18:50:07.677Z,61.70
2023-02-13T18:52:35.327Z,60.03
2023-02-13T18:55:02.743Z,53.00
2023-02-13T18:57:29.672Z,59.45
2023-02-13T18:59:56.603Z,58.72
2023-02-13T19:02:23.800Z,58.60
2023-02-13T19:04:50.829Z,54.45
2023-02-13T19:07:17.628Z,59.67
2023-02-13T19:09:44.663Z,62.42
2023-02-13T19:12:11.738Z,60.42
2023-02-13T19:14:39.865Z,61.00
2023-02-13T19:17:08.658Z,67.93
2023-02-13T19:19:35.544Z,57.38
2023-02-13T19:22:03.521Z,53.60
2023-02-13T19:24:30.616Z,56.33
2023-02-13T19:26:57.391Z,58.70
2023-02-13T19:29:24.313Z,58.42
2023-02-13T19:31:51.117Z,71.82
2023-02-13T19:34:18.242Z,60.58
2023-02-13T19:36:45.035Z,62.58
2023-02-13T19:39:12.032Z,64.22
2023-02-13T19:41:41.069Z,62.60
2023-02-13T19:44:09.347Z,67.88
2023-02-13T19:46:38.254Z,64.18
2023-02-13T19:49:06.308Z,65.43
2023-02-13T19:51:35.070Z,76.10
2023-02-13T19:54:05.895Z,71.20
2023-02-13T19:56:36.227Z,75.38
2023-02-13T19:59:04.349Z,80.45
2023-02-13T20:01:31.233Z,72.93
2023-02-13T20:03:58.585Z,72.78
2023-02-13T20:06:35.829Z,78.60
2023-02-13T20:09:10.441Z,84.68
2023-02-13T20:11:37.408Z,76.50
2023-02-13T20:14:05.909Z,77.72
2023-02-13T20:16:35.576Z,72.15
2023-02-13T20:19:07.160Z,78.03
2023-02-13T20:21:35.408Z,71.93
2023-02-13T20:24:03.306Z,73.22
2023-02-13T20:26:30.441Z,75.80
2023-02-13T20:28:59.611Z,87.68
2023-02-13T20:31:31.234Z,79.03
2023-02-13T20:33:58.672Z,75.75
2023-02-13T20:36:29.268Z,69.88
2023-02-13T20:38:59.798Z,79.22
2023-02-13T20:41:30.435Z,80.20
2023-02-13T20:44:04.645Z,70.82
2023-02-13T20:46:38.208Z,80.00
2023-02-13T20:49:05.791Z,73.90
2023-02-13T20:51:32.764Z,73.80
2023-02-13T20:54:00.486Z,69.25
2023-02-13T20:56:28.564Z,75.50
2023-02-13T20:59:00.635Z,77.30
2023-02-13T21:01:35.506Z,81.55
2023-02-13T21:04:04.052Z,79.45
2023-02-13T21:06:37.142Z,74.65
2023-02-13T21:09:08.215Z,78.38
2023-02-13T21:11:39.043Z,86.78
2023-02-13T21:14:07.148Z,97.53
2023-02-13T21:16:39.941Z,83.70
2023-02-13T21:19:17.858Z,82.38
2023-02-13T21:21:47.399Z,86.03
2023-02-13T21:24:24.540Z,89.78
2023-02-13T21:26:57.976Z,78.93
2023-02-13T21:29:25.969Z,74.20
2023-02-13T21:31:53.574Z,88.00
2023-02-13T21:34:22.922Z,96.45
2023-02-13T21:36:49.939Z,99.20
2023-02-13T21:39:16.957Z,102.43
2023-02-13T21:41:45.472Z,125.20
2023-02-13T21:44:17.025Z,115.97
2023-02-13T21:46:45.533Z,132.25
2023-02-13T21:49:16.560Z,104.55
2023-02-13T21:51:43.915Z,90.40
2023-02-13T21:54:11.777Z,87.07
2023-02-13T21:56:40.767Z,89.13
2023-02-13T21:59:08.304Z,79.03
2023-02-13T22:01:38.751Z,84.55
2023-02-13T22:04:08.752Z,84.57
2023-02-13T22:06:39.177Z,83.50
2023-02-13T22:09:10.294Z,75.72
2023-02-13T22:11:38.511Z,75.07
2023-02-13T22:14:08.629Z,77.90
2023-02-13T22:16:38.831Z,84.90
2023-02-13T22:19:07.432Z,85.90
2023-02-13T22:21:35.705Z,79.22
2023-02-13T22:24:03.491Z,94.35
2023-02-13T22:26:39.366Z,85.88
2023-02-13T22:29:11.513Z,94.93
2023-02-13T22:31:39.185Z,95.07
2023-02-13T22:34:07.077Z,93.97
2023-02-13T22:36:39.202Z,85.60
2023-02-13T22:39:08.267Z,89.28
2023-02-13T22:41:35.162Z,78.85
2023-02-13T22:44:01.979Z,77.82
2023-02-13T22:46:31.843Z,84.88
2023-02-13T22:48:59.783Z,90.43
2023-02-13T22:51:31.864Z,87.78
2023-02-13T22:54:00.099Z,81.25
2023-02-13T22:56:29.729Z,86.40
2023-02-13T22:58:57.280Z,91.93
2023-02-13T23:01:27.060Z,80.60
2023-02-13T23:03:55.213Z,84.25
2023-02-13T23:06:22.590Z,79.68
2023-02-13T23:08:52.889Z,89.38
2023-02-13T23:11:41.670Z,76.93
2023-02-13T23:14:10.180Z,84.00
2023-02-13T23:16:58.853Z,107.20
2023-02-13T23:19:27.687Z,99.13
2023-02-13T23:21:54.593Z,101.95
2023-02-13T23:24:21.714Z,107.57
2023-02-13T23:26:48.548Z,96.65
2023-02-13T23:29:15.389Z,93.40
2023-02-13T23:31:42.362Z,92.53
2023-02-13T23:34:09.685Z,91.93
2023-02-13T23:36:36.669Z,90.80
2023-02-13T23:39:03.596Z,89.68
2023-02-13T23:41:31.102Z,99.43
2023-02-13T23:43:57.882Z,88.57
2023-02-13T23:46:24.742Z,88.38
2023-02-13T23:48:51.630Z,92.38
2023-02-13T23:51:18.666Z,83.18
2023-02-13T23:53:45.822Z,100.38
2023-02-13T23:56:12.605Z,93.47
2023-02-13T23:58:39.373Z,95.47
